createdAt,value
2023-05-16T00:00:23.855Z,1.90
2023-05-16T00:02:54.066Z,1.93
2023-05-16T00:05:22.681Z,2.17
2023-05-16T00:07:51.240Z,2.20
2023-05-16T00:10:19.855Z,2.30
2023-05-16T00:12:51.906Z,2.13
2023-05-16T00:15:20.522Z,2.70
2023-05-16T00:17:49.863Z,1.83
2023-05-16T00:20:23.694Z,1.63
2023-05-16T00:22:52.321Z,1.40
2023-05-16T00:25:21.554Z,2.13
2023-05-16T00:27:49.983Z,2.13
2023-05-16T00:30:18.693Z,1.93
2023-05-16T00:32:47.309Z,2.23
2023-05-16T00:35:15.886Z,1.83
2023-05-16T00:37:45.848Z,1.60
2023-05-16T00:40:14.577Z,1.73
2023-05-16T00:42:44.794Z,1.47
2023-05-16T00:45:13.347Z,1.33
2023-05-16T00:47:41.930Z,1.80
2023-05-16T00:50:11.498Z,1.80
2023-05-16T00:52:40.154Z,1.47
2023-05-16T00:55:11.788Z,1.53
2023-05-16T00:57:40.716Z,2.13
2023-05-16T01:00:11.958Z,1.70
2023-05-16T01:02:40.599Z,1.63
2023-05-16T01:05:09.754Z,2.00
2023-05-16T01:07:38.499Z,2.67
2023-05-16T01:10:11.983Z,1.13
2023-05-16T01:12:49.779Z,2.17
2023-05-16T01:15:24.899Z,1.97
2023-05-16T01:18:01.048Z,1.90
2023-05-16T01:20:37.933Z,2.23
2023-05-16T01:23:34.532Z,1.87
2023-05-16T01:26:23.566Z,1.53
2023-05-16T01:28:53.370Z,1.60
2023-05-16T01:31:23.623Z,1.20
2023-05-16T01:33:53.120Z,1.77
2023-05-16T01:36:27.175Z,1.80
2023-05-16T01:39:03.381Z,1.47
2023-05-16T01:41:42.367Z,1.20
2023-05-16T01:44:19.459Z,1.57
2023-05-16T01:46:49.703Z,1.87
2023-05-16T01:49:25.562Z,1.70
2023-05-16T01:52:01.256Z,1.53
2023-05-16T01:54:33.267Z,1.73
2023-05-16T01:57:08.261Z,1.60
2023-05-16T01:59:38.021Z,1.33
2023-05-16T02:02:06.640Z,1.43
2023-05-16T02:04:35.168Z,2.03
2023-05-16T02:07:03.881Z,2.00
2023-05-16T02:09:32.413Z,2.07
2023-05-16T02:12:02.433Z,1.27
2023-05-16T02:14:32.616Z,1.67
2023-05-16T02:17:01.259Z,2.17
2023-05-16T02:19:30.047Z,1.63
2023-05-16T02:21:58.511Z,2.03
2023-05-16T02:24:27.534Z,1.40
2023-05-16T02:26:57.540Z,1.87
2023-05-16T02:29:26.214Z,1.90
2023-05-16T02:31:56.146Z,2.17
2023-05-16T02:34:24.643Z,3.53
2023-05-16T02:36:53.220Z,2.63
2023-05-16T02:39:24.047Z,1.77
2023-05-16T02:41:53.113Z,1.20
2023-05-16T02:44:21.903Z,1.50
2023-05-16T02:46:50.628Z,1.57
2023-05-16T02:49:20.813Z,2.50
2023-05-16T02:51:49.579Z,1.30
2023-05-16T02:54:18.242Z,1.07
2023-05-16T02:56:46.855Z,1.53
2023-05-16T02:59:15.524Z,2.03
2023-05-16T03:01:44.077Z,2.20
2023-05-16T03:04:12.690Z,1.90
2023-05-16T03:06:42.648Z,1.97
2023-05-16T03:09:11.304Z,2.43
2023-05-16T03:11:39.787Z,1.83
2023-05-16T03:14:08.452Z,2.33
2023-05-16T03:16:38.809Z,1.73
2023-05-16T03:19:07.594Z,1.83
2023-05-16T03:21:36.325Z,2.13
2023-05-16T03:24:07.330Z,2.67
2023-05-16T03:26:37.134Z,2.17
2023-05-16T03:29:05.704Z,1.80
2023-05-16T03:31:34.701Z,3.10
2023-05-16T03:34:03.851Z,2.03
2023-05-16T03:36:32.436Z,1.80
2023-05-16T03:39:00.967Z,1.90
2023-05-16T03:41:30.912Z,1.67
2023-05-16T03:43:59.468Z,1.83
2023-05-16T03:46:28.094Z,2.03
2023-05-16T03:48:56.664Z,1.00
2023-05-16T03:51:25.197Z,1.90
2023-05-16T03:53:53.778Z,2.20
2023-05-16T03:56:23.066Z,1.77
2023-05-16T03:58:53.062Z,1.80
2023-05-16T04:01:21.562Z,1.53
2023-05-16T04:03:50.797Z,2.13
2023-05-16T04:06:19.467Z,1.43
2023-05-16T04:08:48.089Z,1.70
2023-05-16T04:11:16.636Z,1.93
2023-05-16T04:13:45.254Z,1.80
2023-05-16T04:16:15.308Z,1.50
2023-05-16T04:18:43.933Z,1.80
2023-05-16T04:21:15.127Z,1.50
2023-05-16T04:23:43.785Z,1.43
2023-05-16T04:26:12.858Z,1.93
2023-05-16T04:28:41.832Z,1.87
2023-05-16T04:31:11.104Z,1.90
2023-05-16T04:33:41.479Z,1.60
2023-05-16T04:36:10.170Z,1.93
2023-05-16T04:38:38.675Z,1.87
2023-05-16T04:41:07.264Z,1.80
2023-05-16T04:43:35.957Z,2.10
2023-05-16T04:46:04.593Z,2.27
2023-05-16T04:48:33.220Z,1.53
2023-05-16T04:51:03.164Z,1.63
2023-05-16T04:53:31.751Z,1.43
2023-05-16T04:56:00.831Z,1.60
2023-05-16T04:58:29.462Z,1.43
2023-05-16T05:00:57.964Z,1.37
2023-05-16T05:03:26.534Z,1.57
2023-05-16T05:05:55.100Z,2.30
2023-05-16T05:08:25.038Z,1.70
2023-05-16T05:10:53.563Z,1.67
2023-05-16T05:13:22.086Z,1.83
2023-05-16T05:15:52.355Z,2.27
2023-05-16T05:18:20.916Z,1.37
2023-05-16T05:20:49.413Z,1.40
2023-05-16T05:23:18.244Z,1.40
2023-05-16T05:25:48.189Z,1.33
2023-05-16T05:28:16.729Z,1.40
2023-05-16T05:30:45.538Z,1.17
2023-05-16T05:33:17.961Z,0.97
2023-05-16T05:35:46.572Z,1.40
2023-05-16T05:38:15.162Z,0.90
2023-05-16T05:40:43.592Z,1.20
2023-05-16T05:43:13.634Z,2.47
2023-05-16T05:45:42.392Z,1.63
2023-05-16T05:48:11.548Z,1.20
2023-05-16T05:50:40.383Z,1.30
2023-05-16T05:53:09.190Z,2.00
2023-05-16T05:55:37.745Z,1.10
2023-05-16T05:58:07.290Z,1.33
2023-05-16T06:00:37.448Z,1.17
2023-05-16T06:03:06.310Z,1.30
2023-05-16T06:05:35.008Z,1.00
2023-05-16T06:08:03.619Z,0.63
2023-05-16T06:10:32.286Z,1.23
2023-05-16T06:13:00.872Z,1.20
2023-05-16T06:15:29.566Z,1.30
2023-05-16T06:17:59.870Z,1.30
2023-05-16T06:20:28.558Z,1.47
2023-05-16T06:22:57.272Z,1.13
2023-05-16T06:25:26.136Z,0.87
2023-05-16T06:27:54.939Z,1.00
2023-05-16T06:30:23.530Z,1.33
2023-05-16T06:32:52.152Z,0.67
2023-05-16T06:35:22.145Z,1.00
2023-05-16T06:37:50.863Z,0.90
2023-05-16T06:40:19.567Z,1.50
2023-05-16T06:42:48.098Z,1.60
2023-05-16T06:45:16.689Z,1.00
2023-05-16T06:47:45.315Z,1.07
2023-05-16T06:50:13.948Z,1.00
2023-05-16T06:52:43.879Z,0.93
2023-05-16T06:55:12.660Z,1.13
2023-05-16T06:57:41.475Z,0.97
2023-05-16T07:00:11.042Z,0.87
2023-05-16T07:02:39.798Z,0.90
2023-05-16T07:05:09.476Z,0.70
2023-05-16T07:07:38.112Z,1.10
2023-05-16T07:10:09.034Z,1.00
2023-05-16T07:12:38.368Z,0.83
2023-05-16T07:15:08.389Z,0.70
2023-05-16T07:17:37.222Z,0.60
2023-05-16T07:20:06.839Z,0.93
2023-05-16T07:22:35.485Z,0.80
2023-05-16T07:25:04.483Z,0.70
2023-05-16T07:27:34.541Z,0.70
2023-05-16T07:30:03.381Z,0.70
2023-05-16T07:32:32.497Z,0.80
2023-05-16T07:35:01.966Z,1.20
2023-05-16T07:37:31.240Z,0.60
2023-05-16T07:40:00.328Z,0.60
2023-05-16T07:42:29.507Z,1.10
2023-05-16T07:44:59.936Z,0.93
2023-05-16T07:47:29.303Z,0.70
2023-05-16T07:49:58.428Z,1.23
2023-05-16T07:52:27.670Z,0.80
2023-05-16T07:54:59.273Z,0.90
2023-05-16T07:57:28.577Z,0.87
2023-05-16T07:59:57.470Z,0.63
2023-05-16T08:02:31.022Z,0.97
2023-05-16T08:05:02.441Z,0.67
2023-05-16T08:07:31.588Z,0.30
2023-05-16T08:10:00.568Z,0.70
2023-05-16T08:12:30.960Z,0.87
2023-05-16T08:14:59.661Z,1.00
2023-05-16T08:17:29.680Z,1.30
2023-05-16T08:19:59.254Z,0.47
2023-05-16T08:22:28.028Z,0.53
2023-05-16T08:24:57.813Z,1.20
2023-05-16T08:27:27.139Z,1.00
2023-05-16T08:29:55.852Z,1.30
2023-05-16T08:32:24.531Z,1.20
2023-05-16T08:34:54.564Z,1.10
2023-05-16T08:37:23.169Z,0.90
2023-05-16T08:39:51.794Z,0.70
2023-05-16T08:42:20.595Z,0.90
2023-05-16T08:44:49.285Z,0.77
2023-05-16T08:47:21.956Z,1.37
2023-05-16T08:49:56.197Z,0.90
2023-05-16T08:52:28.804Z,0.47
2023-05-16T08:55:10.253Z,0.60
2023-05-16T08:57:41.780Z,0.80
2023-05-16T09:00:12.971Z,1.57
2023-05-16T09:02:42.822Z,0.67
2023-05-16T09:05:14.481Z,0.83
2023-05-16T09:07:43.731Z,1.20
2023-05-16T09:10:17.368Z,1.00
2023-05-16T09:12:46.220Z,1.10
2023-05-16T09:15:15.125Z,0.63
2023-05-16T09:17:46.671Z,0.73
2023-05-16T09:20:21.320Z,0.73
2023-05-16T09:22:54.079Z,0.67
2023-05-16T09:27:55.889Z,0.60
2023-05-16T09:30:28.515Z,0.83
2023-05-16T09:32:57.343Z,0.73
2023-05-16T09:37:59.643Z,0.63
2023-05-16T09:40:28.324Z,0.80
2023-05-16T09:43:05.680Z,0.80
2023-05-16T09:45:35.134Z,1.30
2023-05-16T09:48:06.993Z,0.90
2023-05-16T09:50:38.361Z,1.30
2023-05-16T09:53:07.280Z,0.53
2023-05-16T09:55:36.208Z,1.00
2023-05-16T09:58:04.820Z,0.60
2023-05-16T10:00:34.586Z,0.70
2023-05-16T10:03:05.699Z,0.67
2023-05-16T10:05:36.892Z,0.40
2023-05-16T10:08:06.328Z,0.50
2023-05-16T10:10:39.525Z,0.87
2023-05-16T10:13:11.496Z,1.00
2023-05-16T10:15:41.031Z,1.20
2023-05-16T10:18:13.456Z,0.87
2023-05-16T10:20:46.344Z,0.73
2023-05-16T10:23:19.610Z,0.60
2023-05-16T10:25:49.806Z,0.93
2023-05-16T10:28:18.615Z,0.90
2023-05-16T10:30:48.558Z,1.13
2023-05-16T10:33:18.770Z,0.57
2023-05-16T10:35:48.878Z,0.50
2023-05-16T10:38:19.719Z,0.60
2023-05-16T10:40:49.558Z,0.47
2023-05-16T10:43:25.990Z,0.80
2023-05-16T10:45:58.832Z,0.77
2023-05-16T10:48:31.972Z,0.73
2023-05-16T10:51:03.217Z,0.90
2023-05-16T10:53:33.769Z,1.07
2023-05-16T10:56:12.868Z,1.10
2023-05-16T10:58:46.051Z,1.03
2023-05-16T11:01:20.594Z,1.00
2023-05-16T11:04:12.176Z,0.77
2023-05-16T11:06:54.733Z,0.50
2023-05-16T11:09:26.730Z,0.90
2023-05-16T11:11:57.804Z,0.70
2023-05-16T11:14:28.904Z,0.70
2023-05-16T11:17:03.114Z,0.83
2023-05-16T11:19:34.027Z,0.50
2023-05-16T11:22:11.932Z,0.60
2023-05-16T11:24:41.131Z,0.80
2023-05-16T11:27:09.778Z,0.60
2023-05-16T11:29:38.448Z,0.63
2023-05-16T11:32:08.444Z,1.63
2023-05-16T11:34:39.690Z,0.80
2023-05-16T11:37:11.727Z,1.00
2023-05-16T11:39:41.701Z,0.67
2023-05-16T11:42:10.923Z,0.77
2023-05-16T11:44:39.553Z,1.97
2023-05-16T11:47:08.561Z,0.70
2023-05-16T11:49:37.413Z,0.43
2023-05-16T11:52:06.349Z,0.60
2023-05-16T11:54:36.534Z,1.00
2023-05-16T11:57:07.095Z,0.73
2023-05-16T11:59:35.742Z,1.00
2023-05-16T12:02:06.693Z,0.60
2023-05-16T12:04:35.476Z,0.50
2023-05-16T12:07:05.687Z,0.57
2023-05-16T12:09:34.297Z,0.87
2023-05-16T12:12:08.936Z,0.67
2023-05-16T12:14:37.583Z,0.70
2023-05-16T12:17:06.729Z,0.57
2023-05-16T12:19:35.604Z,0.90
2023-05-16T12:22:04.411Z,0.40
2023-05-16T12:24:33.267Z,0.83
2023-05-16T12:27:01.849Z,0.93
2023-05-16T12:29:32.893Z,0.73
2023-05-16T12:32:02.197Z,1.00
2023-05-16T12:34:31.593Z,0.70
2023-05-16T12:37:02.022Z,0.80
2023-05-16T12:39:38.347Z,0.97
2023-05-16T12:42:09.556Z,0.90
2023-05-16T12:44:39.557Z,0.70
2023-05-16T12:47:13.772Z,0.70
2023-05-16T12:49:46.802Z,0.80
2023-05-16T12:52:20.609Z,0.70
2023-05-16T12:54:49.637Z,0.77
2023-05-16T12:57:19.960Z,0.70
2023-05-16T12:59:50.035Z,1.00
2023-05-16T13:02:18.971Z,1.30
2023-05-16T13:04:47.590Z,0.70
2023-05-16T13:07:17.544Z,0.97
2023-05-16T13:09:46.093Z,0.77
2023-05-16T13:12:15.893Z,1.00
2023-05-16T13:14:45.107Z,1.63
2023-05-16T13:17:15.053Z,0.70
2023-05-16T13:19:43.641Z,0.97
2023-05-16T13:22:12.300Z,0.90
2023-05-16T13:24:40.930Z,0.70
2023-05-16T13:27:09.531Z,1.43
2023-05-16T13:29:38.093Z,0.57
2023-05-16T13:32:07.595Z,0.70
2023-05-16T13:34:37.638Z,1.00
2023-05-16T13:37:06.461Z,1.00
2023-05-16T13:39:35.032Z,0.63
2023-05-16T13:42:04.248Z,0.63
2023-05-16T13:44:33.279Z,0.90
2023-05-16T13:47:01.990Z,1.10
2023-05-16T13:49:30.826Z,0.70
2023-05-16T13:52:01.606Z,0.90
2023-05-16T13:54:30.304Z,1.17
2023-05-16T13:56:59.002Z,1.10
2023-05-16T13:59:56.395Z,0.83
2023-05-16T14:02:16.304Z,1.10
2023-05-16T14:04:44.892Z,0.80
2023-05-16T14:07:15.231Z,1.13
2023-05-16T14:09:44.625Z,0.63
2023-05-16T14:12:13.263Z,0.97
2023-05-16T14:14:41.793Z,0.67
2023-05-16T14:17:10.351Z,0.83
2023-05-16T14:19:39.409Z,1.17
2023-05-16T14:22:08.199Z,0.70
2023-05-16T14:24:38.144Z,1.00
2023-05-16T14:27:07.028Z,0.60
2023-05-16T14:29:35.635Z,0.90
2023-05-16T14:32:04.357Z,1.03
2023-05-16T14:34:33.595Z,0.93
2023-05-16T14:37:02.167Z,1.17
2023-05-16T14:39:30.709Z,0.90
2023-05-16T14:42:00.764Z,0.80
2023-05-16T14:44:29.312Z,0.80
2023-05-16T14:46:57.895Z,0.57
2023-05-16T14:49:26.469Z,0.63
2023-05-16T14:51:55.007Z,1.03
2023-05-16T14:54:23.679Z,1.00
2023-05-16T14:56:52.275Z,1.00
2023-05-16T14:59:22.227Z,0.80
2023-05-16T15:01:51.035Z,0.73
2023-05-16T15:04:19.604Z,0.90
2023-05-16T15:06:48.192Z,0.63
2023-05-16T15:09:17.582Z,0.70
2023-05-16T15:11:46.334Z,0.90
2023-05-16T15:14:14.993Z,0.80
2023-05-16T15:16:47.153Z,0.57
2023-05-16T15:19:15.869Z,0.80
2023-05-16T15:21:44.517Z,0.97
2023-05-16T15:24:13.343Z,1.10
2023-05-16T15:26:42.961Z,0.70
2023-05-16T15:29:11.658Z,0.80
2023-05-16T15:31:40.485Z,0.63
2023-05-16T15:34:11.636Z,0.97
2023-05-16T15:36:40.216Z,1.10
2023-05-16T15:39:08.764Z,0.93
2023-05-16T15:44:12.121Z,0.80
2023-05-16T15:46:40.950Z,0.87
2023-05-16T15:49:12.814Z,0.73
2023-05-16T15:51:41.383Z,0.57
2023-05-16T15:54:10.185Z,0.83
2023-05-16T15:56:38.827Z,0.63
2023-05-16T15:59:07.433Z,0.77
2023-05-16T16:01:36.115Z,0.70
2023-05-16T16:04:04.998Z,1.00
2023-05-16T16:06:35.068Z,0.70
2023-05-16T16:09:04.114Z,0.93
2023-05-16T16:11:32.997Z,0.73
2023-05-16T16:14:01.591Z,0.90
2023-05-16T16:16:30.192Z,0.57
2023-05-16T16:18:58.839Z,1.00
2023-05-16T16:21:27.525Z,1.00
2023-05-16T16:23:57.429Z,0.77
2023-05-16T16:26:26.540Z,0.80
2023-05-16T16:28:55.083Z,1.00
2023-05-16T16:31:23.733Z,0.90
2023-05-16T16:33:52.390Z,0.53
2023-05-16T16:36:21.259Z,1.00
2023-05-16T16:38:49.991Z,1.20
2023-05-16T16:41:19.892Z,1.40
2023-05-16T16:43:48.406Z,1.00
2023-05-16T16:46:17.249Z,1.30
2023-05-16T16:48:45.892Z,1.10
2023-05-16T16:51:14.478Z,1.20
2023-05-16T16:53:43.073Z,1.40
2023-05-16T16:56:11.630Z,1.33
2023-05-16T16:58:41.721Z,0.90
2023-05-16T17:01:12.790Z,0.80
2023-05-16T17:03:41.596Z,1.10
2023-05-16T17:06:10.208Z,0.97
2023-05-16T17:08:38.784Z,1.47
2023-05-16T17:11:07.830Z,1.70
2023-05-16T17:13:37.662Z,1.40
2023-05-16T17:16:08.815Z,1.70
2023-05-16T17:18:37.870Z,1.50
2023-05-16T17:21:06.651Z,1.70
2023-05-16T17:23:35.233Z,1.47
2023-05-16T17:26:04.627Z,1.53
2023-05-16T17:28:33.326Z,1.73
2023-05-16T17:31:02.026Z,2.77
2023-05-16T17:33:32.284Z,1.40
2023-05-16T17:36:00.856Z,1.80
2023-05-16T17:38:29.798Z,1.40
2023-05-16T17:40:58.412Z,1.63
2023-05-16T17:43:27.200Z,1.97
2023-05-16T17:45:55.994Z,2.10
2023-05-16T17:48:24.724Z,1.83
2023-05-16T17:50:54.721Z,1.80
2023-05-16T17:53:23.870Z,1.73
2023-05-16T17:55:52.577Z,1.20
2023-05-16T17:58:21.234Z,1.70
2023-05-16T18:00:49.896Z,1.63
2023-05-16T18:03:18.582Z,1.57
2023-05-16T18:05:48.391Z,1.20
2023-05-16T18:08:18.467Z,1.13
2023-05-16T18:10:52.098Z,1.17
2023-05-16T18:13:22.031Z,1.30
2023-05-16T18:15:51.382Z,1.23
2023-05-16T18:18:20.032Z,1.03
2023-05-16T18:20:48.696Z,1.07
2023-05-16T18:23:18.645Z,1.00
2023-05-16T18:25:47.279Z,0.70
2023-05-16T18:28:16.233Z,1.30
2023-05-16T18:30:45.180Z,0.90
2023-05-16T18:33:14.261Z,1.10
2023-05-16T18:35:42.965Z,0.97
2023-05-16T18:38:20.265Z,1.13
2023-05-16T18:40:58.610Z,1.27
2023-05-16T18:43:27.222Z,1.33
2023-05-16T18:45:55.799Z,1.20
2023-05-16T18:48:24.354Z,1.17
2023-05-16T18:50:53.491Z,1.43
2023-05-16T18:53:22.159Z,1.30
2023-05-16T18:55:50.905Z,1.40
2023-05-16T18:58:20.831Z,1.30
2023-05-16T19:00:49.428Z,1.47
2023-05-16T19:03:20.523Z,1.53
2023-05-16T19:05:49.515Z,1.30
2023-05-16T19:08:18.357Z,1.37
2023-05-16T19:10:46.900Z,1.17
2023-05-16T19:13:15.414Z,1.57
2023-05-16T19:15:45.483Z,1.27
2023-05-16T19:18:14.141Z,1.20
2023-05-16T19:20:44.413Z,1.37
2023-05-16T19:23:14.120Z,1.07
2023-05-16T19:25:47.204Z,1.83
2023-05-16T19:28:16.334Z,1.83
2023-05-16T19:30:46.329Z,1.27
2023-05-16T19:33:15.077Z,1.30
2023-05-16T19:35:43.859Z,1.63
2023-05-16T19:38:12.490Z,1.67
2023-05-16T19:40:41.104Z,1.07
2023-05-16T19:43:09.692Z,1.40
2023-05-16T19:45:38.448Z,1.33
2023-05-16T19:48:09.465Z,1.40
2023-05-16T19:50:38.241Z,1.53
2023-05-16T19:53:06.943Z,2.30
2023-05-16T19:55:38.106Z,1.70
2023-05-16T19:58:07.020Z,1.37
2023-05-16T20:00:35.619Z,1.60
2023-05-16T20:03:04.351Z,1.53
2023-05-16T20:05:34.568Z,1.83
2023-05-16T20:08:03.131Z,2.17
2023-05-16T20:10:31.762Z,2.30
2023-05-16T20:13:00.318Z,2.10
2023-05-16T20:15:29.304Z,2.60
2023-05-16T20:17:58.179Z,2.47
2023-05-16T20:20:27.266Z,1.60
2023-05-16T20:22:57.198Z,2.17
2023-05-16T20:25:25.883Z,2.00
2023-05-16T20:27:54.522Z,1.77
2023-05-16T20:30:23.159Z,1.83
2023-05-16T20:32:51.845Z,1.63
2023-05-16T20:35:20.542Z,2.33
2023-05-16T20:37:49.131Z,1.93
2023-05-16T20:40:19.339Z,1.47
2023-05-16T20:42:47.985Z,1.50
2023-05-16T20:45:16.560Z,1.60
2023-05-16T20:47:45.249Z,1.90
2023-05-16T20:50:13.988Z,1.97
2023-05-16T20:52:42.564Z,2.50
2023-05-16T20:55:11.188Z,2.07
2023-05-16T20:57:43.707Z,1.73
2023-05-16T21:00:13.496Z,1.57
2023-05-16T21:02:42.159Z,1.60
2023-05-16T21:05:24.150Z,1.83
2023-05-16T21:07:54.552Z,2.20
2023-05-16T21:10:23.189Z,2.87
2023-05-16T21:12:53.140Z,2.00
2023-05-16T21:15:23.304Z,2.00
2023-05-16T21:17:52.318Z,2.30
2023-05-16T21:20:21.006Z,2.40
2023-05-16T21:22:49.585Z,2.10
2023-05-16T21:25:18.308Z,1.70
2023-05-16T21:27:46.867Z,2.30
2023-05-16T21:30:17.099Z,2.80
2023-05-16T21:32:45.654Z,1.83
2023-05-16T21:35:14.277Z,1.87
2023-05-16T21:37:42.882Z,1.87
2023-05-16T21:40:18.740Z,2.03
2023-05-16T21:42:47.331Z,2.53
2023-05-16T21:45:17.247Z,2.10
2023-05-16T21:47:46.835Z,2.53
2023-05-16T21:50:15.736Z,2.53
2023-05-16T21:52:44.269Z,2.50
2023-05-16T21:55:12.876Z,2.63
2023-05-16T21:57:41.462Z,2.10
2023-05-16T22:00:10.949Z,2.10
2023-05-16T22:02:42.781Z,2.40
2023-05-16T22:05:11.694Z,3.13
2023-05-16T22:07:40.284Z,3.70
2023-05-16T22:10:10.736Z,2.80
2023-05-16T22:12:39.660Z,2.10
2023-05-16T22:15:09.105Z,2.50
2023-05-16T22:17:37.868Z,2.40
2023-05-16T22:20:09.383Z,2.67
2023-05-16T22:22:37.891Z,3.33
2023-05-16T22:25:07.340Z,2.40
2023-05-16T22:27:35.890Z,2.60
2023-05-16T22:30:04.953Z,2.37
2023-05-16T22:32:33.536Z,3.10
2023-05-16T22:35:02.209Z,2.30
2023-05-16T22:37:32.236Z,3.03
2023-05-16T22:40:01.014Z,2.53
2023-05-16T22:42:31.196Z,2.83
2023-05-16T22:44:59.860Z,3.37
2023-05-16T22:47:29.235Z,3.33
2023-05-16T22:49:57.920Z,3.47
2023-05-16T22:52:26.604Z,3.00
2023-05-16T22:54:58.414Z,2.77
2023-05-16T22:57:27.083Z,3.23
2023-05-16T22:59:56.002Z,2.77
2023-05-16T23:02:24.871Z,3.33
2023-05-16T23:04:53.542Z,2.50
2023-05-16T23:07:22.161Z,3.37
2023-05-16T23:09:50.731Z,3.37
2023-05-16T23:12:21.337Z,2.93
2023-05-16T23:14:49.874Z,3.03
2023-05-16T23:17:18.503Z,3.70
2023-05-16T23:19:47.139Z,2.80
2023-05-16T23:22:15.806Z,2.37
2023-05-16T23:24:44.363Z,3.10
2023-05-16T23:27:12.937Z,3.20
2023-05-16T23:29:42.923Z,3.20
2023-05-16T23:32:11.558Z,3.10
2023-05-16T23:34:40.181Z,2.60
2023-05-16T23:37:08.693Z,2.70
2023-05-16T23:39:37.201Z,3.40
2023-05-16T23:42:05.985Z,2.87
2023-05-16T23:44:34.775Z,3.43
2023-05-16T23:47:04.841Z,3.93
2023-05-16T23:49:33.424Z,4.10
2023-05-16T23:52:01.993Z,3.30
2023-05-16T23:54:30.733Z,3.47
2023-05-16T23:56:59.488Z,3.07
2023-05-16T23:59:28.157Z,3.00
